createdAt,value
2018-12-29T00:00:11.720Z,16.50
2018-12-29T00:01:17.221Z,17.20
2018-12-29T00:03:15.614Z,16.00
2018-12-29T00:04:21.206Z,17.60
2018-12-29T00:06:19.559Z,16.10
2018-12-29T00:07:25.063Z,16.70
2018-12-29T00:09:23.546Z,16.10
2018-12-29T00:10:28.994Z,16.20
2018-12-29T00:12:27.408Z,17.00
2018-12-29T00:13:32.919Z,17.30
2018-12-29T00:15:31.397Z,17.50
2018-12-29T00:16:36.845Z,16.80
2018-12-29T00:18:35.263Z,14.90
2018-12-29T00:19:40.764Z,16.20
2018-12-29T00:21:39.162Z,15.70
2018-12-29T00:22:44.696Z,15.50
2018-12-29T00:24:43.111Z,16.40
2018-12-29T00:25:48.611Z,15.50
2018-12-29T00:27:47.011Z,16.30
2018-12-29T00:28:52.539Z,15.00
2018-12-29T00:30:50.956Z,15.90
2018-12-29T00:31:56.458Z,14.50
2018-12-29T00:33:54.950Z,15.40
2018-12-29T00:35:00.387Z,15.60
2018-12-29T00:36:58.808Z,17.10
2018-12-29T00:38:04.311Z,15.70
2018-12-29T00:40:02.709Z,16.00
2018-12-29T00:41:08.240Z,16.20
2018-12-29T00:43:06.643Z,15.60
2018-12-29T00:44:12.163Z,15.30
2018-12-29T00:46:10.557Z,14.70
2018-12-29T00:47:16.090Z,15.00
2018-12-29T00:49:14.508Z,14.90
2018-12-29T00:50:20.010Z,15.80
2018-12-29T00:52:18.405Z,14.90
2018-12-29T00:53:23.934Z,15.30
2018-12-29T00:55:22.448Z,15.60
2018-12-29T00:57:59.431Z,15.50
2018-12-29T00:59:04.957Z,15.90
2018-12-29T01:01:03.388Z,15.90
2018-12-29T01:02:08.881Z,16.50
2018-12-29T01:04:07.336Z,14.40
2018-12-29T01:05:12.807Z,14.50
2018-12-29T01:07:11.228Z,15.70
2018-12-29T01:08:16.740Z,15.30
2018-12-29T01:10:15.127Z,15.10
2018-12-29T01:11:20.659Z,14.80
2018-12-29T01:13:19.190Z,15.30
2018-12-29T01:14:24.584Z,16.00
2018-12-29T01:16:22.973Z,15.50
2018-12-29T01:17:28.509Z,14.60
2018-12-29T01:19:26.919Z,15.30
2018-12-29T01:20:32.429Z,15.50
2018-12-29T01:22:30.832Z,16.40
2018-12-29T01:23:36.361Z,16.50
2018-12-29T01:25:34.878Z,16.40
2018-12-29T01:26:40.284Z,15.00
2018-12-29T01:28:38.677Z,15.80
2018-12-29T01:29:44.206Z,15.90
2018-12-29T01:31:42.710Z,16.30
2018-12-29T01:32:48.139Z,15.40
2018-12-29T01:34:46.535Z,15.80
2018-12-29T01:35:52.065Z,15.40
2018-12-29T01:37:50.478Z,15.90
2018-12-29T01:38:55.985Z,15.10
2018-12-29T01:40:54.469Z,15.10
2018-12-29T01:41:59.908Z,14.80
2018-12-29T01:43:58.330Z,15.80
2018-12-29T01:45:03.850Z,15.20
2018-12-29T01:47:02.237Z,14.70
2018-12-29T01:48:07.759Z,14.10
2018-12-29T01:50:06.167Z,16.50
2018-12-29T01:51:11.685Z,15.50
2018-12-29T01:53:10.086Z,15.80
2018-12-29T01:54:15.608Z,15.80
2018-12-29T01:56:14.026Z,13.90
2018-12-29T01:57:19.538Z,16.70
2018-12-29T01:59:18.017Z,14.90
2018-12-29T02:00:23.464Z,14.80
2018-12-29T02:02:21.894Z,15.90
2018-12-29T02:03:27.403Z,16.40
2018-12-29T02:05:25.779Z,14.40
2018-12-29T02:06:31.310Z,13.80
2018-12-29T02:08:29.724Z,16.10
2018-12-29T02:09:35.230Z,15.10
2018-12-29T02:11:33.717Z,14.50
2018-12-29T02:12:39.157Z,15.20
2018-12-29T02:14:37.581Z,13.60
2018-12-29T02:15:43.085Z,13.90
2018-12-29T02:17:41.479Z,15.70
2018-12-29T02:18:47.007Z,16.20
2018-12-29T02:20:45.444Z,15.70
2018-12-29T02:21:50.945Z,15.20
2018-12-29T02:23:49.346Z,15.30
2018-12-29T02:24:54.869Z,14.10
2018-12-29T02:26:53.282Z,15.10
2018-12-29T02:27:58.801Z,15.40
2018-12-29T02:29:57.194Z,13.70
2018-12-29T02:31:02.729Z,14.20
2018-12-29T02:33:01.127Z,14.10
2018-12-29T02:34:06.680Z,14.80
2018-12-29T02:36:05.041Z,15.20
2018-12-29T02:37:10.573Z,14.70
2018-12-29T02:39:09.822Z,14.80
2018-12-29T02:40:15.342Z,15.20
2018-12-29T02:42:13.740Z,13.30
2018-12-29T02:43:19.271Z,14.00
2018-12-29T02:45:17.678Z,13.90
2018-12-29T02:46:23.196Z,13.60
2018-12-29T02:48:21.705Z,13.20
2018-12-29T02:49:27.121Z,12.90
2018-12-29T02:51:25.523Z,13.90
2018-12-29T02:52:31.046Z,13.00
2018-12-29T02:54:29.463Z,14.70
2018-12-29T02:55:34.976Z,14.50
2018-12-29T02:57:33.376Z,13.80
2018-12-29T02:58:38.905Z,13.80
2018-12-29T03:00:37.321Z,11.80
2018-12-29T03:01:42.834Z,12.10
2018-12-29T03:03:41.816Z,14.10
2018-12-29T03:04:47.246Z,13.10
2018-12-29T03:06:45.663Z,13.10
2018-12-29T03:07:51.180Z,13.30
2018-12-29T03:09:49.571Z,13.30
2018-12-29T03:10:55.097Z,13.60
2018-12-29T03:12:53.526Z,13.70
2018-12-29T03:13:59.019Z,13.90
2018-12-29T03:15:57.416Z,14.30
2018-12-29T03:17:02.943Z,14.30
2018-12-29T03:19:01.386Z,14.60
2018-12-29T03:20:06.864Z,15.60
2018-12-29T03:22:05.266Z,13.40
2018-12-29T03:23:10.886Z,13.40
2018-12-29T03:25:09.218Z,13.20
2018-12-29T03:26:14.719Z,14.10
2018-12-29T03:28:13.113Z,14.70
2018-12-29T03:29:18.646Z,15.70
2018-12-29T03:31:17.075Z,14.60
2018-12-29T03:32:22.569Z,13.80
2018-12-29T03:34:20.962Z,14.20
2018-12-29T03:35:26.524Z,13.30
2018-12-29T03:37:24.924Z,14.20
2018-12-29T03:38:30.418Z,14.50
2018-12-29T03:40:28.814Z,14.80
2018-12-29T03:41:34.344Z,15.00
2018-12-29T03:43:32.772Z,15.80
2018-12-29T03:44:38.271Z,14.80
2018-12-29T03:46:36.665Z,15.90
2018-12-29T03:47:42.196Z,15.50
2018-12-29T03:49:40.706Z,18.10
2018-12-29T03:50:46.120Z,27.40
2018-12-29T03:52:44.516Z,26.40
2018-12-29T03:53:50.040Z,19.60
2018-12-29T03:55:48.465Z,16.30
2018-12-29T03:56:53.969Z,17.00
2018-12-29T03:58:52.371Z,16.20
2018-12-29T03:59:57.898Z,16.70
2018-12-29T04:01:56.322Z,17.30
2018-12-29T04:03:01.818Z,16.60
2018-12-29T04:05:00.215Z,16.40
2018-12-29T04:06:05.743Z,15.30
2018-12-29T04:08:04.160Z,15.80
2018-12-29T04:09:09.663Z,16.30
2018-12-29T04:11:08.061Z,17.30
2018-12-29T04:12:13.590Z,18.20
2018-12-29T04:14:12.017Z,15.40
2018-12-29T04:15:17.514Z,14.20
2018-12-29T04:17:16.005Z,14.70
2018-12-29T04:18:21.441Z,14.70
2018-12-29T04:20:19.864Z,14.50
2018-12-29T04:21:25.369Z,15.40
2018-12-29T04:23:23.847Z,15.60
2018-12-29T04:24:29.291Z,15.10
2018-12-29T04:26:27.808Z,15.00
2018-12-29T04:27:33.219Z,15.30
2018-12-29T04:29:31.700Z,15.30
2018-12-29T04:30:37.140Z,14.60
2018-12-29T04:32:35.566Z,16.40
2018-12-29T04:33:41.068Z,16.80
2018-12-29T04:35:39.462Z,14.30
2018-12-29T04:36:44.995Z,14.30
2018-12-29T04:38:43.414Z,15.50
2018-12-29T04:39:48.919Z,16.40
2018-12-29T04:41:47.309Z,17.30
2018-12-29T04:42:52.842Z,16.70
2018-12-29T04:44:51.266Z,15.80
2018-12-29T04:45:56.772Z,15.40
2018-12-29T04:47:55.166Z,18.20
2018-12-29T04:49:00.693Z,14.70
2018-12-29T04:50:59.118Z,14.70
2018-12-29T04:52:04.615Z,15.60
2018-12-29T04:54:03.104Z,15.00
2018-12-29T04:55:08.539Z,14.30
2018-12-29T04:57:06.967Z,11.40
2018-12-29T04:58:12.466Z,11.90
2018-12-29T05:00:10.864Z,12.80
2018-12-29T05:01:16.399Z,13.50
2018-12-29T05:03:14.824Z,11.10
2018-12-29T05:04:20.327Z,11.60
2018-12-29T05:06:18.805Z,12.20
2018-12-29T05:07:24.248Z,11.90
2018-12-29T05:09:22.674Z,11.60
2018-12-29T05:10:28.174Z,12.10
2018-12-29T05:12:26.566Z,10.40
2018-12-29T05:13:32.101Z,10.70
2018-12-29T05:15:30.517Z,10.20
2018-12-29T05:16:36.076Z,10.10
2018-12-29T05:18:34.511Z,10.80
2018-12-29T05:19:39.952Z,11.00
2018-12-29T05:21:38.398Z,9.80
2018-12-29T05:22:43.892Z,9.50
2018-12-29T05:24:42.376Z,11.10
2018-12-29T05:25:47.834Z,10.40
2018-12-29T05:27:46.345Z,10.00
2018-12-29T05:28:51.754Z,11.00
2018-12-29T05:30:50.147Z,10.30
2018-12-29T05:31:55.679Z,11.00
2018-12-29T05:33:54.087Z,14.00
2018-12-29T05:34:59.606Z,13.10
2018-12-29T05:36:58.002Z,11.00
2018-12-29T05:38:03.535Z,9.50
2018-12-29T05:40:01.960Z,9.70
2018-12-29T05:41:07.454Z,8.60
2018-12-29T05:43:05.853Z,9.30
2018-12-29T05:44:11.379Z,10.00
2018-12-29T05:46:09.802Z,9.50
2018-12-29T05:47:15.308Z,8.80
2018-12-29T05:49:13.699Z,9.50
2018-12-29T05:50:19.230Z,9.50
2018-12-29T05:52:17.652Z,8.70
2018-12-29T05:53:23.157Z,9.20
2018-12-29T05:55:22.128Z,9.20
2018-12-29T05:56:27.090Z,9.00
2018-12-29T05:58:25.525Z,9.60
2018-12-29T05:59:31.017Z,8.80
2018-12-29T06:01:29.411Z,9.90
2018-12-29T06:02:34.939Z,9.90
2018-12-29T06:04:33.350Z,9.10
2018-12-29T06:05:38.871Z,9.40
2018-12-29T06:07:37.263Z,9.10
2018-12-29T06:08:42.790Z,8.80
2018-12-29T06:10:41.206Z,9.20
2018-12-29T06:11:46.719Z,9.60
2018-12-29T06:13:45.119Z,9.40
2018-12-29T06:14:50.656Z,9.70
2018-12-29T06:16:49.147Z,10.10
2018-12-29T06:17:54.573Z,9.60
2018-12-29T06:19:52.980Z,9.30
2018-12-29T06:20:58.504Z,9.30
2018-12-29T06:22:56.917Z,8.50
2018-12-29T06:24:02.436Z,9.20
2018-12-29T06:26:00.841Z,9.30
2018-12-29T06:27:06.360Z,8.70
2018-12-29T06:29:04.757Z,9.10
2018-12-29T06:30:10.285Z,8.30
2018-12-29T06:32:09.537Z,8.40
2018-12-29T06:33:15.061Z,7.90
2018-12-29T06:35:13.448Z,8.60
2018-12-29T06:36:18.980Z,8.00
2018-12-29T06:38:17.388Z,7.40
2018-12-29T06:39:22.936Z,7.10
2018-12-29T06:41:21.389Z,7.30
2018-12-29T06:42:26.837Z,8.30
2018-12-29T06:44:25.325Z,8.00
2018-12-29T06:45:30.758Z,7.40
2018-12-29T06:47:30.010Z,7.70
2018-12-29T06:48:35.564Z,7.10
2018-12-29T06:50:34.106Z,7.20
2018-12-29T06:51:39.499Z,7.30
2018-12-29T06:53:38.761Z,6.60
2018-12-29T06:54:44.274Z,6.90
2018-12-29T06:56:42.667Z,7.90
2018-12-29T06:57:48.199Z,7.40
2018-12-29T06:59:46.606Z,6.60
2018-12-29T07:00:52.125Z,6.10
2018-12-29T07:02:50.556Z,6.50
2018-12-29T07:03:56.048Z,6.50
2018-12-29T07:05:54.533Z,6.50
2018-12-29T07:06:59.987Z,6.60
2018-12-29T07:08:58.393Z,6.10
2018-12-29T07:10:03.914Z,6.60
2018-12-29T07:12:02.303Z,6.90
2018-12-29T07:13:07.837Z,7.30
2018-12-29T07:15:06.248Z,7.50
2018-12-29T07:16:11.770Z,7.40
2018-12-29T07:18:10.163Z,6.80
2018-12-29T07:19:15.733Z,6.90
2018-12-29T07:21:14.220Z,7.90
2018-12-29T07:22:19.744Z,7.90
2018-12-29T07:24:18.224Z,7.30
2018-12-29T07:25:23.673Z,7.20
2018-12-29T07:27:22.080Z,7.40
2018-12-29T07:28:27.600Z,7.90
2018-12-29T07:30:26.094Z,7.60
2018-12-29T07:31:31.523Z,7.60
2018-12-29T07:33:29.917Z,7.10
2018-12-29T07:34:35.448Z,7.20
2018-12-29T07:36:33.941Z,7.30
2018-12-29T07:37:39.371Z,7.20
2018-12-29T07:39:37.768Z,8.20
2018-12-29T07:40:43.299Z,7.70
2018-12-29T07:42:41.802Z,8.00
2018-12-29T07:43:47.223Z,8.10
2018-12-29T07:45:45.622Z,8.00
2018-12-29T07:46:51.153Z,7.90
2018-12-29T07:48:49.648Z,7.40
2018-12-29T07:49:55.071Z,8.80
2018-12-29T07:51:53.576Z,8.10
2018-12-29T07:52:59.007Z,8.60
2018-12-29T07:54:57.481Z,7.50
2018-12-29T07:56:02.927Z,7.90
2018-12-29T07:58:01.367Z,8.10
2018-12-29T07:59:06.893Z,8.10
2018-12-29T08:01:05.332Z,8.40
2018-12-29T08:02:10.772Z,8.80
2018-12-29T08:04:09.181Z,8.90
2018-12-29T08:05:14.701Z,8.50
2018-12-29T08:07:13.090Z,9.40
2018-12-29T08:08:18.626Z,9.10
2018-12-29T08:10:17.113Z,9.20
2018-12-29T08:11:22.551Z,9.10
2018-12-29T08:13:21.055Z,10.40
2018-12-29T08:14:26.473Z,10.60
2018-12-29T08:16:24.960Z,11.60
2018-12-29T08:17:30.400Z,10.00
2018-12-29T08:19:28.900Z,10.00
2018-12-29T08:20:34.346Z,10.80
2018-12-29T08:22:32.818Z,10.80
2018-12-29T08:23:38.274Z,11.20
2018-12-29T08:25:36.675Z,12.00
2018-12-29T08:26:42.196Z,11.10
2018-12-29T08:28:40.691Z,11.00
2018-12-29T08:29:46.134Z,10.90
2018-12-29T08:31:44.612Z,11.00
2018-12-29T08:32:50.042Z,10.90
2018-12-29T08:35:01.213Z,10.60
2018-12-29T08:36:06.729Z,10.90
2018-12-29T08:38:05.129Z,11.60
2018-12-29T08:39:10.659Z,12.30
2018-12-29T08:41:09.075Z,12.40
2018-12-29T08:42:14.581Z,11.70
2018-12-29T08:44:13.063Z,11.10
2018-12-29T08:45:18.510Z,11.00
2018-12-29T08:47:16.951Z,12.60
2018-12-29T08:48:22.454Z,12.00
2018-12-29T08:50:20.850Z,12.80
2018-12-29T08:51:26.380Z,12.30
2018-12-29T08:53:24.806Z,13.30
2018-12-29T08:54:30.320Z,13.60
2018-12-29T08:56:28.725Z,12.20
2018-12-29T08:57:34.258Z,13.50
2018-12-29T08:59:32.656Z,12.60
2018-12-29T09:00:38.170Z,12.50
2018-12-29T09:02:36.570Z,14.30
2018-12-29T09:03:42.100Z,13.50
2018-12-29T09:05:40.512Z,13.90
2018-12-29T09:06:46.032Z,13.60
2018-12-29T09:08:44.542Z,13.60
2018-12-29T09:09:49.949Z,14.10
2018-12-29T09:11:49.456Z,13.00
2018-12-29T09:12:54.728Z,12.80
2018-12-29T09:14:53.123Z,12.90
2018-12-29T09:15:58.654Z,12.10
2018-12-29T09:17:57.153Z,12.80
2018-12-29T09:19:02.579Z,13.00
2018-12-29T09:21:01.114Z,13.60
2018-12-29T09:22:06.510Z,12.90
2018-12-29T09:24:04.899Z,12.50
2018-12-29T09:25:10.429Z,11.40
2018-12-29T09:27:09.696Z,13.20
2018-12-29T09:28:15.198Z,12.20
2018-12-29T09:30:13.689Z,12.70
2018-12-29T09:31:19.139Z,13.50
2018-12-29T09:33:17.543Z,12.30
2018-12-29T09:34:23.068Z,11.50
2018-12-29T09:36:21.483Z,12.00
2018-12-29T09:37:27.001Z,12.10
2018-12-29T09:39:25.402Z,13.00
2018-12-29T09:40:30.919Z,12.80
2018-12-29T09:42:30.188Z,12.30
2018-12-29T09:43:35.693Z,12.20
2018-12-29T09:45:34.086Z,12.60
2018-12-29T09:46:39.615Z,11.50
2018-12-29T09:48:38.025Z,12.30
2018-12-29T09:49:43.598Z,11.90
2018-12-29T09:51:42.031Z,11.30
2018-12-29T09:52:47.468Z,10.60
2018-12-29T09:54:45.966Z,10.40
2018-12-29T09:55:51.403Z,9.90
2018-12-29T09:57:50.644Z,9.70
2018-12-29T09:58:56.171Z,8.80
2018-12-29T10:00:54.593Z,8.50
2018-12-29T10:02:00.095Z,8.90
2018-12-29T10:03:58.513Z,9.40
2018-12-29T10:05:04.026Z,8.80
2018-12-29T10:07:02.420Z,9.10
2018-12-29T10:08:07.950Z,9.20
2018-12-29T10:10:06.360Z,10.00
2018-12-29T10:11:11.878Z,9.50
2018-12-29T10:13:11.373Z,8.70
2018-12-29T10:14:16.682Z,9.70
2018-12-29T10:16:15.085Z,10.20
2018-12-29T10:17:26.773Z,10.10
2018-12-29T10:19:18.997Z,9.90
2018-12-29T10:20:24.535Z,9.40
2018-12-29T10:22:23.788Z,9.50
2018-12-29T10:23:29.303Z,9.30
2018-12-29T10:25:27.853Z,9.30
2018-12-29T10:26:33.229Z,9.10
2018-12-29T10:28:31.651Z,9.70
2018-12-29T10:29:37.178Z,9.30
2018-12-29T10:31:35.739Z,9.50
2018-12-29T10:32:41.102Z,9.90
2018-12-29T10:34:40.349Z,9.30
2018-12-29T10:35:45.879Z,10.40
2018-12-29T10:37:44.291Z,10.30
2018-12-29T10:38:49.803Z,10.00
2018-12-29T10:40:48.238Z,10.00
2018-12-29T10:41:53.729Z,10.20
2018-12-29T10:43:52.152Z,12.10
2018-12-29T10:44:57.658Z,11.90
2018-12-29T10:46:56.055Z,12.40
2018-12-29T10:48:01.581Z,11.60
2018-12-29T10:49:59.991Z,11.50
2018-12-29T10:51:05.509Z,11.20
2018-12-29T10:53:03.922Z,15.20
2018-12-29T10:54:09.441Z,14.10
2018-12-29T10:56:07.842Z,12.60
2018-12-29T10:57:13.368Z,12.70
2018-12-29T10:59:11.779Z,12.70
2018-12-29T11:00:17.290Z,12.10
2018-12-29T11:02:15.695Z,11.40
2018-12-29T11:03:21.224Z,12.50
2018-12-29T11:05:19.720Z,12.30
2018-12-29T11:06:25.145Z,12.90
2018-12-29T11:08:24.408Z,13.10
2018-12-29T11:09:29.933Z,11.60
2018-12-29T11:11:28.411Z,12.50
2018-12-29T11:12:33.894Z,12.40
2018-12-29T11:14:32.261Z,12.20
2018-12-29T11:15:37.777Z,13.00
2018-12-29T11:17:42.158Z,13.20
2018-12-29T11:18:41.726Z,12.40
2018-12-29T11:20:40.258Z,12.90
2018-12-29T11:21:45.658Z,13.30
2018-12-29T11:23:44.049Z,13.30
2018-12-29T11:24:49.574Z,13.40
2018-12-29T11:26:48.573Z,13.80
2018-12-29T11:27:53.562Z,13.20
2018-12-29T11:29:51.957Z,12.30
2018-12-29T11:30:57.426Z,12.20
2018-12-29T11:32:55.828Z,13.20
2018-12-29T11:34:01.353Z,12.60
2018-12-29T11:35:59.869Z,12.50
2018-12-29T11:37:05.283Z,11.80
2018-12-29T11:39:03.678Z,11.90
2018-12-29T11:40:09.212Z,13.00
2018-12-29T11:42:07.714Z,11.30
2018-12-29T11:43:13.150Z,10.70
2018-12-29T11:45:11.585Z,11.30
2018-12-29T11:46:17.119Z,11.60
2018-12-29T11:48:15.541Z,11.10
2018-12-29T11:49:21.052Z,11.00
2018-12-29T11:51:19.472Z,10.90
2018-12-29T11:52:24.986Z,10.80
2018-12-29T11:54:23.376Z,11.40
2018-12-29T11:55:28.912Z,11.20
2018-12-29T11:57:27.475Z,12.90
2018-12-29T11:58:32.836Z,11.50
2018-12-29T12:00:31.238Z,11.30
2018-12-29T12:01:36.760Z,11.00
2018-12-29T12:03:35.270Z,12.10
2018-12-29T12:04:40.690Z,12.70
2018-12-29T12:06:39.090Z,12.00
2018-12-29T12:07:44.621Z,12.20
2018-12-29T12:09:43.031Z,12.00
2018-12-29T12:10:48.543Z,12.40
2018-12-29T12:12:46.939Z,12.40
2018-12-29T12:13:52.469Z,12.90
2018-12-29T12:15:50.972Z,12.20
2018-12-29T12:16:56.396Z,13.30
2018-12-29T12:18:54.793Z,13.10
2018-12-29T12:20:00.331Z,13.50
2018-12-29T12:21:58.818Z,12.80
2018-12-29T12:23:04.258Z,13.50
2018-12-29T12:25:02.677Z,14.30
2018-12-29T12:26:08.181Z,14.30
2018-12-29T12:28:06.590Z,15.70
2018-12-29T12:29:12.104Z,15.20
2018-12-29T12:31:10.517Z,13.60
2018-12-29T12:32:16.039Z,14.60
2018-12-29T12:34:14.428Z,14.30
2018-12-29T12:35:19.960Z,13.90
2018-12-29T12:37:18.374Z,14.30
2018-12-29T12:38:23.888Z,14.70
2018-12-29T12:40:22.285Z,15.50
2018-12-29T12:41:27.810Z,14.90
2018-12-29T12:43:26.246Z,14.80
2018-12-29T12:44:31.794Z,14.50
2018-12-29T12:46:30.160Z,14.60
2018-12-29T12:47:35.664Z,14.90
2018-12-29T12:49:34.068Z,15.50
2018-12-29T12:50:39.589Z,16.30
2018-12-29T12:52:38.001Z,13.90
2018-12-29T12:53:43.516Z,14.50
2018-12-29T12:55:41.908Z,14.10
2018-12-29T12:56:47.439Z,15.20
2018-12-29T12:58:45.934Z,14.20
2018-12-29T12:59:51.364Z,14.10
2018-12-29T13:01:49.763Z,14.40
2018-12-29T13:02:55.293Z,14.30
2018-12-29T13:04:53.715Z,13.50
2018-12-29T13:05:59.220Z,13.10
2018-12-29T13:07:57.656Z,14.20
2018-12-29T13:09:03.148Z,14.50
2018-12-29T13:11:01.543Z,13.70
2018-12-29T13:12:07.074Z,13.10
2018-12-29T13:14:05.572Z,13.90
2018-12-29T13:15:10.999Z,14.70
2018-12-29T13:17:09.400Z,13.80
2018-12-29T13:18:14.931Z,13.30
2018-12-29T13:20:13.424Z,13.50
2018-12-29T13:21:18.865Z,12.80
2018-12-29T13:23:17.338Z,12.90
2018-12-29T13:24:22.778Z,13.30
2018-12-29T13:26:21.275Z,12.90
2018-12-29T13:27:26.714Z,12.70
2018-12-29T13:29:25.131Z,14.80
2018-12-29T13:30:30.636Z,13.90
2018-12-29T13:32:29.879Z,14.50
2018-12-29T13:33:35.410Z,13.60
2018-12-29T13:35:33.832Z,13.30
2018-12-29T13:36:39.339Z,13.10
2018-12-29T13:38:37.740Z,15.20
2018-12-29T13:39:43.263Z,14.60
2018-12-29T13:41:41.762Z,14.40
2018-12-29T13:42:47.195Z,13.60
2018-12-29T13:44:45.586Z,14.30
2018-12-29T13:45:51.122Z,15.10
2018-12-29T13:47:49.614Z,14.80
2018-12-29T13:48:55.040Z,14.70
2018-12-29T13:50:53.524Z,15.00
2018-12-29T13:51:58.965Z,13.40
2018-12-29T13:53:57.411Z,14.30
2018-12-29T13:55:02.923Z,13.60
2018-12-29T13:57:01.357Z,13.20
2018-12-29T13:58:06.853Z,14.20
2018-12-29T14:00:05.271Z,13.80
2018-12-29T14:01:10.784Z,14.90
2018-12-29T14:03:10.045Z,14.20
2018-12-29T14:04:15.552Z,13.60
2018-12-29T14:06:14.031Z,14.30
2018-12-29T14:07:19.478Z,14.50
2018-12-29T14:09:17.898Z,13.50
2018-12-29T14:10:23.410Z,13.90
2018-12-29T14:12:21.894Z,13.30
2018-12-29T14:13:27.339Z,14.40
2018-12-29T14:15:26.465Z,13.00
2018-12-29T14:16:31.257Z,13.70
2018-12-29T14:18:29.653Z,14.20
2018-12-29T14:19:35.182Z,14.20
2018-12-29T14:21:33.604Z,14.70
2018-12-29T14:22:39.115Z,15.20
2018-12-29T14:24:37.504Z,14.30
2018-12-29T14:25:43.040Z,14.70
2018-12-29T14:27:41.545Z,14.20
2018-12-29T14:28:46.966Z,14.50
2018-12-29T14:30:45.357Z,15.50
2018-12-29T14:31:50.890Z,14.60
2018-12-29T14:33:49.309Z,15.90
2018-12-29T14:34:54.819Z,16.40
2018-12-29T14:36:53.292Z,13.60
2018-12-29T14:37:58.740Z,14.60
2018-12-29T14:39:58.068Z,14.80
2018-12-29T14:41:03.518Z,14.90
2018-12-29T14:43:01.908Z,14.70
2018-12-29T14:44:07.438Z,14.70
2018-12-29T14:46:05.864Z,15.90
2018-12-29T14:47:11.368Z,15.80
2018-12-29T14:49:09.861Z,15.10
2018-12-29T14:50:15.288Z,15.50
2018-12-29T14:52:13.804Z,14.90
2018-12-29T14:53:19.215Z,15.80
2018-12-29T14:55:18.462Z,16.50
2018-12-29T14:56:23.990Z,14.70
2018-12-29T14:58:22.402Z,14.70
2018-12-29T14:59:27.918Z,14.40
2018-12-29T15:01:26.315Z,16.10
2018-12-29T15:02:31.842Z,15.70
2018-12-29T15:04:30.273Z,15.20
2018-12-29T15:05:35.775Z,14.40
2018-12-29T15:07:34.165Z,15.50
2018-12-29T15:08:39.696Z,14.90
2018-12-29T15:10:38.972Z,15.80
2018-12-29T15:11:44.464Z,16.10
2018-12-29T15:13:42.866Z,16.80
2018-12-29T15:14:48.407Z,15.20
2018-12-29T15:16:46.813Z,15.00
2018-12-29T15:17:52.319Z,15.50
2018-12-29T15:19:50.716Z,22.10
2018-12-29T15:20:56.247Z,18.50
2018-12-29T15:22:54.679Z,17.20
2018-12-29T15:24:00.176Z,16.90
2018-12-29T15:25:58.564Z,16.60
2018-12-29T15:27:04.100Z,16.50
2018-12-29T15:29:02.513Z,16.20
2018-12-29T15:30:08.025Z,16.40
2018-12-29T15:32:06.415Z,15.30
2018-12-29T15:33:11.946Z,16.20
2018-12-29T15:35:10.402Z,15.60
2018-12-29T15:36:16.153Z,16.20
2018-12-29T15:38:14.269Z,15.60
2018-12-29T15:39:19.795Z,15.60
2018-12-29T15:41:18.227Z,17.00
2018-12-29T15:42:23.732Z,16.40
2018-12-29T15:44:22.988Z,16.80
2018-12-29T15:45:27.647Z,15.50
2018-12-29T15:47:26.071Z,16.00
2018-12-29T15:48:31.576Z,14.60
2018-12-29T15:50:29.974Z,14.00
2018-12-29T15:51:35.497Z,14.50
2018-12-29T15:53:33.921Z,14.50
2018-12-29T15:54:39.432Z,15.60
2018-12-29T15:56:37.824Z,14.80
2018-12-29T15:57:43.349Z,14.40
2018-12-29T15:59:41.766Z,14.60
2018-12-29T16:00:47.285Z,14.00
2018-12-29T16:02:45.755Z,14.60
2018-12-29T16:03:51.303Z,15.70
2018-12-29T16:05:51.380Z,15.50
2018-12-29T16:06:57.288Z,14.30
2018-12-29T16:08:55.414Z,12.50
2018-12-29T16:10:00.952Z,13.80
2018-12-29T16:12:13.206Z,13.60
2018-12-29T16:13:18.397Z,13.40
2018-12-29T16:15:17.666Z,13.30
2018-12-29T16:16:23.071Z,13.80
2018-12-29T16:18:21.401Z,13.10
2018-12-29T16:19:26.902Z,13.20
2018-12-29T16:21:29.079Z,12.10
2018-12-29T16:22:31.880Z,12.20
2018-12-29T16:24:30.262Z,11.30
2018-12-29T16:25:35.847Z,11.90
2018-12-29T16:27:35.864Z,13.00
2018-12-29T16:28:40.721Z,12.40
2018-12-29T16:30:39.879Z,11.90
2018-12-29T16:31:45.325Z,11.60
2018-12-29T16:33:43.729Z,11.40
2018-12-29T16:34:49.255Z,11.20
2018-12-29T16:36:47.665Z,10.20
2018-12-29T16:37:53.181Z,9.90
2018-12-29T16:39:51.581Z,10.50
2018-12-29T16:40:58.011Z,9.90
2018-12-29T16:42:55.607Z,10.40
2018-12-29T16:44:01.105Z,10.70
2018-12-29T16:45:59.503Z,10.60
2018-12-29T16:47:05.034Z,10.10
2018-12-29T16:49:06.875Z,9.80
2018-12-29T16:50:08.963Z,10.40
2018-12-29T16:52:07.433Z,11.20
2018-12-29T16:53:12.943Z,10.30
2018-12-29T16:55:11.335Z,9.70
2018-12-29T16:56:16.863Z,9.60
2018-12-29T16:58:15.287Z,10.10
2018-12-29T16:59:20.786Z,11.30
2018-12-29T17:01:20.282Z,14.20
2018-12-29T17:02:25.585Z,12.30
2018-12-29T17:04:24.007Z,13.80
2018-12-29T17:05:29.522Z,12.40
2018-12-29T17:07:27.918Z,11.70
2018-12-29T17:08:33.441Z,10.40
2018-12-29T17:10:32.709Z,44.00
2018-12-29T17:11:38.219Z,25.90
2018-12-29T17:13:36.612Z,23.80
2018-12-29T17:14:42.138Z,29.50
2018-12-29T17:16:40.560Z,10.90
2018-12-29T17:17:46.060Z,12.00
2018-12-29T17:19:44.464Z,23.20
2018-12-29T17:20:49.992Z,13.90
2018-12-29T17:22:48.418Z,12.60
2018-12-29T17:23:53.918Z,14.60
2018-12-29T17:25:52.306Z,11.00
2018-12-29T17:26:57.852Z,11.20
2018-12-29T17:28:57.234Z,10.60
2018-12-29T17:30:02.716Z,9.50
2018-12-29T17:32:03.301Z,11.30
2018-12-29T17:33:08.799Z,11.60
2018-12-29T17:35:20.383Z,11.10
2018-12-29T17:36:25.537Z,10.90
2018-12-29T17:38:25.250Z,11.70
2018-12-29T17:39:30.814Z,11.60
2018-12-29T17:41:30.483Z,11.60
2018-12-29T17:42:35.926Z,12.00
2018-12-29T17:44:36.644Z,10.70
2018-12-29T17:45:42.135Z,10.90
2018-12-29T17:47:40.519Z,12.40
2018-12-29T17:48:45.485Z,10.60
2018-12-29T17:50:44.944Z,12.50
2018-12-29T17:51:50.050Z,10.90
2018-12-29T17:53:49.517Z,10.70
2018-12-29T17:54:55.658Z,10.50
2018-12-29T17:57:07.263Z,10.20
2018-12-29T17:58:12.722Z,9.90
2018-12-29T18:00:37.372Z,9.60
2018-12-29T18:01:42.197Z,9.40
2018-12-29T18:03:42.970Z,9.60
2018-12-29T18:04:47.781Z,10.30
2018-12-29T18:06:47.493Z,12.70
2018-12-29T18:07:52.489Z,12.00
2018-12-29T18:09:57.188Z,21.90
2018-12-29T18:10:57.449Z,12.80
2018-12-29T18:12:55.822Z,11.20
2018-12-29T18:14:01.332Z,11.30
2018-12-29T18:15:59.727Z,14.70
2018-12-29T18:17:05.254Z,11.80
2018-12-29T18:19:03.676Z,10.20
2018-12-29T18:20:09.182Z,10.30
2018-12-29T18:22:07.579Z,9.70
2018-12-29T18:23:13.106Z,10.50
2018-12-29T18:25:11.518Z,10.50
2018-12-29T18:26:17.034Z,13.10
2018-12-29T18:28:15.428Z,11.10
2018-12-29T18:29:20.958Z,8.70
2018-12-29T18:31:19.389Z,11.50
2018-12-29T18:32:24.876Z,12.20
2018-12-29T18:34:23.278Z,11.20
2018-12-29T18:35:28.804Z,13.20
2018-12-29T18:37:27.214Z,12.00
2018-12-29T18:38:32.813Z,10.90
2018-12-29T18:40:31.147Z,11.10
2018-12-29T18:41:36.656Z,12.50
2018-12-29T18:43:35.065Z,13.00
2018-12-29T18:44:40.591Z,12.90
2018-12-29T18:46:38.994Z,16.40
2018-12-29T18:47:44.522Z,20.60
2018-12-29T18:49:42.913Z,32.50
2018-12-29T18:50:48.441Z,34.50
2018-12-29T18:52:46.847Z,18.00
2018-12-29T18:53:52.364Z,17.50
2018-12-29T18:55:50.765Z,20.40
2018-12-29T18:56:56.286Z,13.00
2018-12-29T18:58:54.697Z,12.30
2018-12-29T19:00:00.220Z,11.70
2018-12-29T19:01:58.624Z,8.70
2018-12-29T19:03:04.140Z,11.50
2018-12-29T19:05:02.538Z,9.60
2018-12-29T19:06:08.061Z,9.70
2018-12-29T19:08:06.472Z,9.10
2018-12-29T19:09:11.987Z,9.30
2018-12-29T19:11:10.385Z,12.10
2018-12-29T19:12:15.913Z,8.80
2018-12-29T19:14:14.339Z,7.90
2018-12-29T19:15:19.837Z,8.00
2018-12-29T19:17:18.329Z,7.60
2018-12-29T19:18:23.760Z,8.00
2018-12-29T19:20:22.181Z,8.10
2018-12-29T19:21:27.690Z,8.60
2018-12-29T19:23:26.080Z,7.00
2018-12-29T19:24:31.605Z,7.80
2018-12-29T19:26:30.032Z,7.80
2018-12-29T19:27:35.583Z,7.00
2018-12-29T19:29:33.924Z,7.10
2018-12-29T19:30:39.456Z,7.20
2018-12-29T19:32:37.878Z,7.00
2018-12-29T19:33:43.378Z,7.10
2018-12-29T19:35:41.773Z,11.00
2018-12-29T19:36:47.302Z,12.50
2018-12-29T19:38:45.800Z,7.60
2018-12-29T19:39:51.230Z,11.20
2018-12-29T19:41:55.027Z,9.10
2018-12-29T19:42:56.860Z,7.60
2018-12-29T19:44:55.272Z,9.30
2018-12-29T19:46:00.784Z,9.00
2018-12-29T19:47:59.271Z,7.20
2018-12-29T19:49:04.711Z,7.00
2018-12-29T19:51:03.131Z,7.50
2018-12-29T19:52:08.631Z,7.00
2018-12-29T19:54:07.029Z,5.10
2018-12-29T19:55:12.558Z,5.50